Terminal Aerodrome Forecast
Issued by NWS Sioux Falls, SD

Home | Current Version | Previous Version | Graphics & Text | Print | Product List | Glossary Off
Versions: 1 2 3 4 5 6 7 8 9 10 11 12 13 14 15 16 17 18 19 20 21 22 23 24 25 26 27 28 29 30 31 32 33 34 35 36 37 38 39 40

137
FTUS43 KFSD 212322
TAFSUX
TAF
KSUX 212322Z 2200/2224 17011KT P6SM FEW120 BKN200
     FM220600 18011KT P6SM VCTS SCT050CB BKN120
     FM220800 18009KT P6SM SHRA VCTS BKN040CB OVC090
     FM221100 16007KT P6SM OVC090
     FM222100 12007KT P6SM BKN090=

USA.gov is the U.S. government's official web portal to all federal, state and local government web resources and services.